Time;durP1;ratioP1;P1;durP2;ratioP2;P2;SDS_P1;SDS_P2;PMS_P1;PMS_P2;Temp;Humidity;BMP_temperature;BMP_pressure;BME280_temperature;BME280_humidity;BME280_pressure;Samples;Min_cycle;Max_cycle;Signal;HPM_P1;HPM_P2
2023/05/14 00:05:44;;;;;;;25.10;22.60;;;10.10;99.90;;;;;;2614868;54;20250;-69
2023/05/14 00:11:32;;;;;;;24.90;22.10;;;10.30;99.90;;;;;;2614422;54;20123;-70
2023/05/14 00:17:19;;;;;;;24.60;21.60;;;10.10;99.90;;;;;;2614670;54;20194;-70
2023/05/14 00:23:07;;;;;;;23.63;21.10;;;9.80;99.90;;;;;;2614032;54;20139;-70
2023/05/14 00:28:55;;;;;;;22.33;20.13;;;9.90;99.90;;;;;;2613333;54;20130;-70
2023/05/14 00:32:19;;;;;;;25.17;21.67;;;9.90;99.90;;;;;;2614325;54;20922;-70
2023/05/14 00:34:45;;;;;;;23.63;21.13;;;9.80;99.90;;;;;;2613710;54;20163;-70
2023/05/14 00:40:33;;;;;;;26.90;24.03;;;9.50;99.90;;;;;;2614040;54;20115;-69
2023/05/14 00:46:20;;;;;;;23.77;21.23;;;9.50;99.90;;;;;;2614684;54;20198;-70
2023/05/14 00:52:09;;;;;;;26.63;23.20;;;9.40;99.90;;;;;;2613761;54;20134;-69
2023/05/14 00:57:58;;;;;;;25.07;22.37;;;9.30;99.90;;;;;;2614152;54;20404;-69
2023/05/14 01:03:46;;;;;;;22.97;20.70;;;9.10;99.90;;;;;;2613794;54;20342;-70
2023/05/14 01:09:56;;;;;;;26.20;23.30;;;9.20;99.90;;;;;;2614331;54;20161;-70
2023/05/14 01:15:46;;;;;;;25.47;21.20;;;9.10;99.90;;;;;;2613426;39;21046;-70
2023/05/14 01:21:39;;;;;;;25.90;23.07;;;9.10;99.90;;;;;;2613924;54;20382;-69
2023/05/14 01:27:58;;;;;;;26.23;23.47;;;9.10;99.90;;;;;;2614153;54;20391;-70
2023/05/14 01:37:11;;;;;;;29.40;23.27;;;8.90;99.90;;;;;;2613391;39;20774;-68
2023/05/14 01:42:59;;;;;;;33.83;22.60;;;8.80;99.90;;;;;;2613744;54;20375;-69
2023/05/14 01:48:47;;;;;;;27.33;24.50;;;8.70;99.90;;;;;;2613938;54;20394;-69
2023/05/14 01:54:35;;;;;;;29.00;23.30;;;9.00;99.90;;;;;;2613830;54;20153;-69
2023/05/14 02:00:26;;;;;;;28.90;26.03;;;8.90;99.90;;;;;;2614585;54;20111;-70
2023/05/14 02:06:14;;;;;;;26.67;23.87;;;8.70;99.90;;;;;;2614892;54;20391;-70
2023/05/14 02:09:17;;;;;;;30.13;24.53;;;8.60;99.90;;;;;;2614154;46;20422;-68
2023/05/14 02:11:42;;;;;;;26.27;23.60;;;8.60;99.90;;;;;;2614938;54;20200;-68
2023/05/14 02:17:30;;;;;;;28.73;24.43;;;8.70;99.90;;;;;;2613457;54;20122;-76
2023/05/14 02:23:18;;;;;;;27.97;24.70;;;8.40;99.90;;;;;;2614229;54;20182;-74
2023/05/14 02:29:06;;;;;;;30.20;23.27;;;8.40;99.90;;;;;;2614304;54;20122;-75
2023/05/14 02:35:02;;;;;;;25.27;22.23;;;8.20;99.90;;;;;;2612834;54;20147;-75
2023/05/14 02:40:49;;;;;;;26.87;23.73;;;8.40;99.90;;;;;;2612997;54;20673;-75
2023/05/14 02:43:33;;;;;;;26.80;23.90;;;8.30;99.90;;;;;;2612688;54;20416;-70
2023/05/14 02:45:59;;;;;;;31.60;24.93;;;8.50;99.90;;;;;;2612817;54;20306;-70
2023/05/14 02:51:46;;;;;;;34.27;23.13;;;8.20;99.90;;;;;;2613005;54;20246;-69
2023/05/14 02:57:33;;;;;;;24.83;22.23;;;8.10;99.90;;;;;;2614312;39;20578;-69
2023/05/14 03:03:20;;;;;;;25.17;22.50;;;8.00;99.90;;;;;;2613108;54;20126;-68
2023/05/14 03:09:07;;;;;;;28.83;23.40;;;8.10;99.90;;;;;;2612735;54;20151;-68
2023/05/14 03:14:55;;;;;;;24.47;21.90;;;7.90;99.90;;;;;;2613250;46;20158;-68
2023/05/14 03:20:42;;;;;;;26.43;23.50;;;8.00;99.90;;;;;;2614266;54;20736;-69
2023/05/14 03:26:30;;;;;;;27.63;22.97;;;8.10;99.90;;;;;;2614607;54;20122;-67
2023/05/14 03:32:18;;;;;;;25.27;22.53;;;8.10;99.90;;;;;;2614093;54;20138;-69
2023/05/14 03:38:06;;;;;;;24.67;21.57;;;7.90;99.90;;;;;;2613923;54;20133;-68
2023/05/14 03:43:53;;;;;;;24.63;21.23;;;8.00;99.90;;;;;;2613842;54;20222;-68
2023/05/14 03:49:41;;;;;;;26.50;23.60;;;8.10;99.90;;;;;;2614369;54;20133;-67
2023/05/14 03:55:28;;;;;;;27.17;23.93;;;8.00;99.90;;;;;;2614682;54;20154;-69
2023/05/14 04:01:16;;;;;;;25.50;22.90;;;7.80;99.90;;;;;;2614249;54;22025;-69
2023/05/14 04:07:04;;;;;;;31.50;23.60;;;8.00;99.90;;;;;;2614523;39;20564;-75
2023/05/14 04:12:54;;;;;;;29.83;24.67;;;7.90;99.90;;;;;;2614868;54;20127;-75
2023/05/14 04:18:41;;;;;;;29.97;24.20;;;8.10;99.90;;;;;;2613616;54;20390;-74
2023/05/14 04:24:29;;;;;;;28.70;25.57;;;8.20;99.90;;;;;;2615245;39;20629;-74
2023/05/14 04:30:17;;;;;;;27.47;23.70;;;8.20;99.90;;;;;;2613686;54;20664;-75
2023/05/14 04:36:05;;;;;;;31.93;27.63;;;8.70;99.90;;;;;;2614205;54;20158;-75
2023/05/14 04:41:52;;;;;;;27.27;24.30;;;8.90;99.90;;;;;;2613751;46;20427;-75
2023/05/14 04:47:40;;;;;;;34.17;27.80;;;9.20;99.90;;;;;;2613955;54;20126;-76
2023/05/14 04:53:28;;;;;;;29.30;26.07;;;9.50;99.90;;;;;;2610280;54;20402;-74
2023/05/14 04:59:16;;;;;;;29.27;25.17;;;9.80;99.90;;;;;;2614271;54;20240;-76
2023/05/14 05:05:04;;;;;;;26.97;24.10;;;10.30;99.90;;;;;;2613988;54;20656;-75
2023/05/14 05:10:52;;;;;;;27.17;24.30;;;10.60;99.90;;;;;;2612623;54;20399;-75
2023/05/14 05:16:39;;;;;;;26.40;23.83;;;10.40;99.90;;;;;;2614305;54;20126;-75
2023/05/14 05:22:27;;;;;;;26.50;23.93;;;10.30;99.90;;;;;;2612880;54;20703;-76
2023/05/14 05:28:15;;;;;;;25.40;22.73;;;10.30;99.90;;;;;;2613258;54;20127;-76
2023/05/14 05:37:25;;;;;;;26.93;22.03;;;12.00;99.90;;;;;;2614869;54;20411;-75
2023/05/14 05:43:14;;;;;;;25.57;23.10;;;13.00;99.90;;;;;;2614637;54;20650;-75
2023/05/14 05:49:01;;;;;;;26.20;23.90;;;13.70;99.90;;;;;;2615305;54;20367;-74
2023/05/14 05:54:49;;;;;;;25.77;23.27;;;14.10;99.90;;;;;;2614913;54;20130;-76
2023/05/14 06:00:37;;;;;;;26.17;23.87;;;14.00;99.90;;;;;;2614097;54;20147;-78
2023/05/14 06:06:25;;;;;;;25.63;22.43;;;14.20;99.90;;;;;;2611001;46;20146;-76
2023/05/14 06:12:12;;;;;;;24.77;22.43;;;14.70;99.90;;;;;;2613315;54;20645;-76
2023/05/14 06:18:00;;;;;;;24.73;22.20;;;15.10;99.90;;;;;;2613554;46;20141;-76
2023/05/14 06:23:48;;;;;;;22.10;20.40;;;15.50;99.90;;;;;;2613386;54;20126;-75
2023/05/14 06:29:36;;;;;;;22.30;20.47;;;15.90;99.90;;;;;;2614522;54;20234;-76
2023/05/14 06:32:49;;;;;;;22.50;20.70;;;16.00;99.90;;;;;;2614761;54;20398;-76
2023/05/14 06:35:14;;;;;;;21.30;19.60;;;16.30;99.90;;;;;;2614196;54;20423;-75
2023/05/14 06:41:02;;;;;;;20.80;19.30;;;16.30;99.90;;;;;;2611300;54;20131;-75
2023/05/14 06:46:50;;;;;;;21.20;19.50;;;16.50;99.90;;;;;;2614320;54;20664;-76
2023/05/14 06:52:38;;;;;;;20.10;18.50;;;17.30;99.90;;;;;;2613384;54;20996;-76
2023/05/14 06:58:26;;;;;;;19.23;17.93;;;17.40;99.90;;;;;;2614197;54;20133;-77
2023/05/14 07:04:13;;;;;;;19.03;17.57;;;18.00;99.90;;;;;;2614440;54;20135;-75
2023/05/14 07:10:02;;;;;;;19.07;17.57;;;18.00;99.90;;;;;;2613858;39;20509;-77
2023/05/14 07:15:50;;;;;;;18.10;16.80;;;18.70;99.90;;;;;;2614211;54;20367;-75
2023/05/14 07:21:37;;;;;;;17.87;16.47;;;18.90;99.90;;;;;;2613523;54;20496;-76
2023/05/14 07:27:25;;;;;;;16.80;15.80;;;19.30;99.90;;;;;;2612918;54;20127;-77
2023/05/14 07:37:19;;;;;;;17.17;16.03;;;19.90;90.50;;;;;;2611819;54;20448;-76
2023/05/14 07:43:06;;;;;;;13.57;12.87;;;20.70;62.30;;;;;;2606308;54;20782;-75
2023/05/14 07:48:54;;;;;;;17.03;16.00;;;20.40;58.10;;;;;;2613981;54;20131;-76
2023/05/14 07:54:42;;;;;;;16.20;15.20;;;20.70;58.80;;;;;;2614053;54;20370;-76
2023/05/14 07:57:45;;;;;;;15.10;14.20;;;20.10;50.10;;;;;;2612851;54;20448;-77
2023/05/14 08:00:11;;;;;;;14.27;13.47;;;20.90;50.40;;;;;;2613884;54;20687;-77
2023/05/14 08:05:59;;;;;;;12.30;11.73;;;21.30;35.10;;;;;;2613549;54;20367;-77
2023/05/14 08:11:46;;;;;;;13.10;11.97;;;21.50;28.60;;;;;;2613126;54;20150;-75
2023/05/14 08:17:34;;;;;;;13.07;12.20;;;21.90;27.60;;;;;;2613872;54;20134;-75
2023/05/14 08:23:22;;;;;;;14.10;13.20;;;22.10;22.50;;;;;;2613808;39;20560;-76
2023/05/14 08:29:10;;;;;;;13.67;13.07;;;22.40;23.90;;;;;;2612104;54;20170;-76
2023/05/14 08:38:20;;;;;;;11.80;11.27;;;22.40;19.60;;;;;;2613571;54;20419;-76
2023/05/14 08:44:10;;;;;;;10.93;10.43;;;22.80;17.10;;;;;;2613660;54;20125;-77
2023/05/14 08:56:15;;;;;;;11.77;11.17;;;22.80;11.90;;;;;;2612120;54;20391;-77
2023/05/14 09:02:05;;;;;;;11.13;10.63;;;23.20;9.90;;;;;;2613371;54;20447;-77
2023/05/14 09:07:53;;;;;;;11.97;11.37;;;23.10;10.10;;;;;;2613675;54;20450;-78
2023/05/14 09:13:41;;;;;;;11.47;10.97;;;23.20;7.50;;;;;;2612281;54;20130;-78
2023/05/14 09:19:28;;;;;;;11.30;10.80;;;23.40;6.90;;;;;;2613092;54;20688;-79
2023/05/14 09:25:16;;;;;;;10.73;10.13;;;23.30;8.70;;;;;;2613574;54;20130;-78
2023/05/14 09:31:04;;;;;;;14.10;13.30;;;23.00;3.50;;;;;;2611704;54;20126;-78
2023/05/14 09:33:51;;;;;;;12.53;11.83;;;22.80;6.60;;;;;;2607212;54;20946;-78
2023/05/14 09:36:18;;;;;;;12.23;11.63;;;23.70;8.20;;;;;;2609496;54;20170;-79
2023/05/14 09:42:06;;;;;;;12.30;11.40;;;24.50;5.20;;;;;;2607935;39;20805;-78
2023/05/14 09:47:53;;;;;;;11.77;11.07;;;23.80;4.90;;;;;;2608486;54;20374;-78
2023/05/14 09:53:42;;;;;;;11.97;11.47;;;24.10;4.50;;;;;;2610666;54;20143;-77
2023/05/14 09:59:30;;;;;;;11.77;11.20;;;23.90;1.00;;;;;;2611650;54;20390;-78
2023/05/14 10:05:20;;;;;;;11.60;11.00;;;23.60;1.50;;;;;;2613180;54;20162;-79
2023/05/14 10:11:13;;;;;;;12.30;11.40;;;24.60;2.30;;;;;;2611958;54;20403;-78
2023/05/14 10:17:04;;;;;;;12.37;11.70;;;24.00;2.90;;;;;;2613151;39;20917;-78
2023/05/14 10:22:52;;;;;;;12.60;11.90;;;24.30;5.70;;;;;;2611284;39;20851;-78
2023/05/14 10:28:40;;;;;;;15.00;14.17;;;24.70;1.00;;;;;;2608832;54;20138;-78
2023/05/14 10:44:50;;;;;;;13.67;12.53;;;24.40;1.40;;;;;;2610164;39;20769;-77
2023/05/14 10:50:38;;;;;;;14.07;13.37;;;24.60;2.00;;;;;;2608188;39;20852;-78
2023/05/14 10:56:25;;;;;;;13.20;12.57;;;24.50;2.00;;;;;;2610738;54;20716;-78
2023/05/14 11:02:29;;;;;;;14.33;13.53;;;25.20;1.00;;;;;;2608534;46;20186;-78
2023/05/14 11:08:18;;;;;;;14.03;13.33;;;25.10;1.00;;;;;;2611911;54;20387;-78
2023/05/14 11:14:06;;;;;;;14.10;13.20;;;25.30;1.00;;;;;;2612470;54;20467;-77
2023/05/14 11:19:54;;;;;;;14.07;13.27;;;24.80;1.00;;;;;;2614329;54;21228;-79
2023/05/14 11:25:42;;;;;;;14.63;13.40;;;25.00;1.00;;;;;;2614033;54;20938;-78
2023/05/14 11:31:30;;;;;;;14.23;12.70;;;25.80;1.00;;;;;;2613909;54;20158;-77
2023/05/14 11:40:40;;;;;;;13.77;12.90;;;25.70;1.00;;;;;;2611933;54;24409;-78
2023/05/14 11:46:29;;;;;;;12.97;12.07;;;26.10;1.00;;;;;;2612156;54;20123;-77
2023/05/14 11:52:20;;;;;;;13.57;13.07;;;25.30;1.00;;;;;;2613638;54;20387;-76
2023/05/14 11:58:08;;;;;;;13.93;13.20;;;24.90;1.00;;;;;;2613267;54;20364;-78
2023/05/14 12:03:55;;;;;;;13.67;13.07;;;25.00;1.00;;;;;;2610448;54;20150;-77
2023/05/14 12:09:48;;;;;;;15.57;14.30;;;24.90;1.00;;;;;;2610854;54;20138;-77
2023/05/14 12:15:36;;;;;;;14.10;13.40;;;26.00;1.00;;;;;;2611363;54;20398;-77
2023/05/14 12:21:25;;;;;;;13.30;12.63;;;25.50;1.00;;;;;;2612553;54;20134;-76
2023/05/14 12:27:12;;;;;;;12.70;12.10;;;24.20;1.00;;;;;;2605311;54;20953;-78
2023/05/14 12:33:00;;;;;;;13.00;12.40;;;25.60;1.00;;;;;;2611397;39;20508;-77
2023/05/14 12:36:05;;;;;;;12.67;11.77;;;25.40;1.00;;;;;;2611384;39;20536;-76
2023/05/14 12:38:31;;;;;;;13.30;12.60;;;25.20;1.00;;;;;;2613035;54;20150;-77
2023/05/14 12:44:18;;;;;;;12.70;12.20;;;25.50;1.00;;;;;;2613732;54;20119;-76
2023/05/14 12:50:06;;;;;;;14.27;13.40;;;25.20;1.00;;;;;;2613841;54;20123;-75
2023/05/14 12:55:54;;;;;;;13.87;13.27;;;25.00;1.00;;;;;;2613176;39;20840;-75
2023/05/14 13:01:42;;;;;;;13.50;12.80;;;25.20;1.00;;;;;;2612872;54;20126;-76
2023/05/14 13:07:30;;;;;;;13.20;12.70;;;25.60;1.00;;;;;;2614501;39;20531;-76
2023/05/14 13:13:18;;;;;;;13.53;12.43;;;25.30;1.00;;;;;;2614030;54;20709;-75
2023/05/14 13:19:05;;;;;;;14.33;13.73;;;24.70;1.00;;;;;;2613865;39;20651;-76
2023/05/14 13:24:53;;;;;;;13.97;13.40;;;25.50;1.00;;;;;;2613641;54;20672;-75
2023/05/14 13:40:32;;;;;;;13.70;12.73;;;25.80;1.00;;;;;;2614040;54;20415;-76
2023/05/14 13:46:20;;;;;;;14.47;13.60;;;25.80;1.00;;;;;;2614350;39;20791;-75
2023/05/14 13:52:07;;;;;;;13.30;12.60;;;25.10;1.00;;;;;;2613031;54;20110;-75
2023/05/14 13:55:11;;;;;;;12.83;12.23;;;25.50;1.00;;;;;;2614778;54;20388;-76
2023/05/14 13:57:38;;;;;;;15.60;14.80;;;25.20;1.00;;;;;;2613409;54;20225;-76
2023/05/14 14:03:26;;;;;;;15.93;15.23;;;25.80;1.00;;;;;;2614774;54;20426;-77
2023/05/14 14:09:13;;;;;;;20.73;19.63;;;24.40;1.00;;;;;;2614241;54;20134;-76
2023/05/14 14:15:02;;;;;;;44.93;41.43;;;24.70;1.00;;;;;;2614129;54;20125;-76
2023/05/14 14:20:51;;;;;;;19.27;17.93;;;24.90;1.00;;;;;;2614837;54;20933;-75
2023/05/14 14:26:38;;;;;;;18.63;17.53;;;24.60;1.00;;;;;;2614739;54;20406;-75
2023/05/14 14:32:26;;;;;;;15.33;14.53;;;24.60;1.00;;;;;;2613708;54;20138;-76
2023/05/14 14:41:36;;;;;;;13.60;13.00;;;25.30;1.00;;;;;;2607334;54;20422;-75
2023/05/14 14:47:24;;;;;;;13.60;12.90;;;25.00;1.00;;;;;;2611913;54;20126;-75
2023/05/14 14:53:12;;;;;;;17.93;17.03;;;24.20;1.00;;;;;;2612392;54;20138;-76
2023/05/14 14:59:00;;;;;;;15.40;14.70;;;23.50;1.00;;;;;;2613897;54;20667;-76
2023/05/14 15:04:49;;;;;;;14.43;13.33;;;23.00;1.00;;;;;;2614242;54;20407;-75
2023/05/14 15:10:37;;;;;;;49.20;45.43;;;23.20;1.00;;;;;;2612124;46;20403;-76
2023/05/14 15:16:24;;;;;;;14.00;13.30;;;23.20;1.00;;;;;;2613006;54;20133;-76
2023/05/14 15:22:12;;;;;;;12.70;12.10;;;23.30;1.00;;;;;;2613640;39;20544;-76
2023/05/14 15:28:00;;;;;;;13.87;13.30;;;23.30;1.00;;;;;;2612581;54;20131;-76
2023/05/14 15:33:47;;;;;;;18.03;16.83;;;23.30;1.00;;;;;;2612823;54;20142;-75
2023/05/14 15:37:05;;;;;;;13.40;12.80;;;23.40;1.00;;;;;;2611487;47;20943;-76
2023/05/14 15:39:31;;;;;;;13.73;13.13;;;23.10;1.00;;;;;;2612393;47;20154;-75
2023/05/14 15:45:18;;;;;;;13.77;12.60;;;23.10;1.00;;;;;;2613328;54;20143;-76
2023/05/14 15:51:07;;;;;;;12.30;11.80;;;23.20;1.00;;;;;;2612476;54;20130;-76
2023/05/14 15:56:55;;;;;;;15.07;14.30;;;22.90;1.00;;;;;;2612545;54;21131;-75
2023/05/14 16:02:43;;;;;;;14.10;13.50;;;22.60;1.00;;;;;;2614691;54;21011;-76
2023/05/14 16:08:30;;;;;;;13.33;12.63;;;22.60;1.00;;;;;;2610836;54;20206;-75
2023/05/14 16:14:18;;;;;;;13.90;13.10;;;22.50;1.00;;;;;;2614421;54;20126;-76
2023/05/14 16:20:06;;;;;;;13.80;13.20;;;22.50;1.10;;;;;;2613679;54;20227;-75
2023/05/14 16:25:54;;;;;;;13.53;12.93;;;22.10;2.80;;;;;;2613355;39;20736;-76
2023/05/14 16:31:42;;;;;;;14.73;13.83;;;22.00;2.50;;;;;;2612922;54;20134;-74
2023/05/14 16:41:33;;;;;;;15.67;14.97;;;22.30;1.30;;;;;;2613196;54;20371;-76
2023/05/14 16:47:20;;;;;;;16.07;15.30;;;21.80;1.00;;;;;;2613388;54;20379;-75
2023/05/14 16:53:08;;;;;;;18.47;17.33;;;21.90;1.00;;;;;;2609591;54;20281;-76
2023/05/14 16:58:56;;;;;;;24.73;23.20;;;21.40;1.00;;;;;;2611939;54;20158;-75
2023/05/14 17:04:44;;;;;;;17.97;16.97;;;21.20;1.60;;;;;;2612729;54;20286;-75
2023/05/14 17:10:32;;;;;;;18.13;17.03;;;21.00;2.90;;;;;;2613981;39;20830;-74
2023/05/14 17:16:20;;;;;;;18.00;16.90;;;20.90;4.20;;;;;;2612817;54;20395;-75
2023/05/14 17:22:08;;;;;;;17.37;16.43;;;20.70;5.10;;;;;;2609819;54;20367;-74
2023/05/14 17:27:56;;;;;;;15.57;14.87;;;20.60;5.00;;;;;;2607240;54;20134;-75
2023/05/14 17:33:44;;;;;;;14.90;14.10;;;20.50;5.10;;;;;;2610272;54;20177;-75
2023/05/14 17:37:05;;;;;;;15.10;14.30;;;20.50;6.30;;;;;;2613612;54;20411;-74
2023/05/14 17:39:31;;;;;;;15.90;15.03;;;20.50;5.20;;;;;;2611002;54;20402;-74
2023/05/14 17:45:19;;;;;;;14.40;13.80;;;20.40;3.70;;;;;;2613134;39;20596;-76
2023/05/14 17:51:07;;;;;;;14.67;13.80;;;20.30;3.10;;;;;;2610417;54;20894;-74
2023/05/14 17:56:55;;;;;;;14.70;14.10;;;20.20;3.10;;;;;;2613686;31;20612;-73
2023/05/14 18:02:44;;;;;;;15.63;14.93;;;20.10;2.10;;;;;;2613211;54;20157;-74
2023/05/14 18:08:31;;;;;;;14.70;14.10;;;20.00;3.30;;;;;;2611405;39;20861;-75
2023/05/14 18:14:19;;;;;;;15.20;14.50;;;19.80;4.60;;;;;;2612570;54;20222;-75
2023/05/14 18:20:07;;;;;;;15.87;15.07;;;19.60;6.00;;;;;;2611765;54;20936;-74
2023/05/14 18:25:55;;;;;;;15.23;14.57;;;19.50;7.40;;;;;;2613926;54;20452;-74
2023/05/14 18:31:43;;;;;;;18.07;17.07;;;19.30;9.10;;;;;;2612751;46;20146;-75
2023/05/14 18:41:34;;;;;;;16.77;16.00;;;19.00;16.30;;;;;;2614048;54;21175;-75
2023/05/14 18:47:21;;;;;;;16.10;15.30;;;18.90;17.50;;;;;;2613919;39;20961;-74
2023/05/14 18:53:09;;;;;;;18.10;17.10;;;18.80;23.30;;;;;;2612612;54;20146;-75
2023/05/14 18:58:57;;;;;;;15.83;14.93;;;18.70;26.40;;;;;;2611922;54;20170;-75
2023/05/14 19:04:44;;;;;;;17.70;16.70;;;18.60;29.10;;;;;;2613246;39;20382;-75
2023/05/14 19:10:33;;;;;;;16.27;15.47;;;18.70;26.20;;;;;;2613890;54;20613;-74
2023/05/14 19:16:21;;;;;;;16.80;15.83;;;18.50;28.50;;;;;;2614404;39;21074;-75
2023/05/14 19:22:09;;;;;;;15.30;14.60;;;18.40;31.10;;;;;;2613195;54;20427;-74
2023/05/14 19:28:00;;;;;;;18.53;17.23;;;18.20;34.10;;;;;;2614592;39;20517;-74
2023/05/14 19:33:47;;;;;;;16.20;15.40;;;18.00;36.10;;;;;;2611937;54;20499;-74
2023/05/14 19:37:05;;;;;;;15.17;14.47;;;17.90;40.40;;;;;;2614419;54;20395;-74
2023/05/14 19:39:31;;;;;;;15.40;14.70;;;17.70;43.30;;;;;;2612485;39;20999;-75
2023/05/14 19:45:19;;;;;;;15.00;14.30;;;17.50;46.50;;;;;;2613706;54;20673;-75
2023/05/14 19:51:06;;;;;;;16.07;15.27;;;17.30;56.50;;;;;;2613216;54;20391;-73
2023/05/14 19:56:54;;;;;;;15.00;14.20;;;17.10;72.90;;;;;;2612222;54;20151;-74
2023/05/14 20:02:41;;;;;;;16.50;15.50;;;16.90;94.10;;;;;;2612585;54;20134;-74
2023/05/14 20:08:29;;;;;;;15.03;14.33;;;16.70;99.90;;;;;;2613985;54;20130;-75
2023/05/14 20:14:17;;;;;;;15.20;14.50;;;16.70;99.90;;;;;;2613401;54;20227;-75
2023/05/14 20:20:05;;;;;;;16.70;15.60;;;16.40;99.90;;;;;;2612737;54;20127;-75
2023/05/14 20:25:53;;;;;;;15.67;14.67;;;16.30;99.90;;;;;;2613847;54;21314;-74
2023/05/14 20:31:41;;;;;;;15.40;14.50;;;16.10;99.90;;;;;;2613938;54;20668;-75
2023/05/14 20:41:34;;;;;;;15.43;14.33;;;16.10;99.90;;;;;;2609006;54;20484;-74
2023/05/14 20:47:25;;;;;;;15.80;14.87;;;15.90;99.90;;;;;;2612857;54;20426;-74
2023/05/14 20:53:12;;;;;;;15.50;14.50;;;15.80;99.90;;;;;;2612438;54;21000;-74
2023/05/14 20:59:00;;;;;;;14.37;13.50;;;15.70;99.90;;;;;;2613018;54;20154;-72
2023/05/14 21:04:47;;;;;;;15.80;14.43;;;15.60;99.90;;;;;;2613401;54;20139;-73
2023/05/14 21:10:35;;;;;;;14.20;13.20;;;15.50;99.90;;;;;;2612280;54;20151;-74
2023/05/14 21:16:23;;;;;;;14.13;13.00;;;15.30;99.90;;;;;;2613439;54;20743;-69
2023/05/14 21:22:12;;;;;;;14.83;13.77;;;15.20;99.90;;;;;;2612807;54;21041;-69
2023/05/14 21:27:59;;;;;;;13.67;12.73;;;15.00;99.90;;;;;;2612646;54;20403;-69
2023/05/14 21:33:47;;;;;;;14.80;13.80;;;15.00;99.90;;;;;;2613513;54;20154;-69
2023/05/14 21:37:02;;;;;;;15.83;14.40;;;15.00;99.90;;;;;;2612999;54;20420;-68
2023/05/14 21:39:28;;;;;;;13.50;12.50;;;15.00;99.90;;;;;;2613867;54;20181;-69
2023/05/14 21:45:16;;;;;;;13.53;12.50;;;14.90;99.90;;;;;;2613458;54;20652;-69
2023/05/14 21:51:04;;;;;;;13.33;12.33;;;14.80;99.90;;;;;;2613219;54;20158;-69
2023/05/14 21:56:51;;;;;;;12.43;11.50;;;14.70;99.90;;;;;;2612926;54;20446;-69
2023/05/14 22:02:39;;;;;;;13.67;12.77;;;14.60;99.90;;;;;;2611914;54;20154;-69
2023/05/14 22:08:29;;;;;;;12.13;11.33;;;14.30;99.90;;;;;;2613217;54;20134;-67
2023/05/14 22:14:17;;;;;;;12.90;11.70;;;14.10;99.90;;;;;;2609653;54;20363;-68
2023/05/14 22:20:05;;;;;;;11.50;10.60;;;14.00;99.90;;;;;;2611884;54;20155;-68
2023/05/14 22:25:53;;;;;;;12.00;11.03;;;14.20;99.90;;;;;;2613018;39;20930;-68
2023/05/14 22:31:41;;;;;;;12.83;11.37;;;13.90;99.90;;;;;;2611261;54;20201;-69
2023/05/14 22:41:37;;;;;;;11.73;10.83;;;13.60;99.90;;;;;;2611652;54;20948;-69
2023/05/14 22:47:25;;;;;;;12.80;11.90;;;13.60;99.90;;;;;;2611229;54;20414;-68
2023/05/14 22:53:12;;;;;;;13.60;12.40;;;13.50;99.90;;;;;;2611544;54;20130;-68
2023/05/14 22:59:00;;;;;;;10.80;9.90;;;13.30;99.90;;;;;;2612988;54;20162;-69
2023/05/14 23:04:48;;;;;;;13.63;12.60;;;13.20;99.90;;;;;;2613935;54;20179;-69
2023/05/14 23:10:35;;;;;;;12.50;11.40;;;13.20;99.90;;;;;;2610866;54;20157;-68
2023/05/14 23:16:23;;;;;;;12.93;11.83;;;13.20;99.90;;;;;;2612794;39;20565;-69
2023/05/14 23:22:11;;;;;;;13.37;12.30;;;13.20;99.90;;;;;;2612409;54;20398;-69
2023/05/14 23:27:59;;;;;;;12.90;11.50;;;13.10;99.90;;;;;;2611611;54;20602;-69
2023/05/14 23:33:46;;;;;;;12.40;11.40;;;12.90;99.90;;;;;;2611390;54;20134;-69
2023/05/14 23:37:02;;;;;;;14.40;13.00;;;12.70;99.90;;;;;;2611086;54;20946;-68
2023/05/14 23:39:28;;;;;;;13.43;12.23;;;12.70;99.90;;;;;;2611993;54;20266;-68
2023/05/14 23:45:16;;;;;;;14.93;13.57;;;12.70;99.90;;;;;;2610649;54;20157;-68
2023/05/14 23:51:04;;;;;;;15.00;13.77;;;12.70;99.90;;;;;;2613044;54;20419;-68
2023/05/14 23:56:51;;;;;;;14.27;13.17;;;12.60;99.90;;;;;;2612572;54;20134;-68
